Welcome to Northern Hawkes Bay. New Zealand.
PWS Header
      nz Flag



Hit Counter


W3C Valid W3C Valid logo


    Wairoa

Select any of the Stations below to visit their websites.










Historic Data from Weather Underground
Select the location of interest below. Wairoa is the default. Please have patience, this Data is slow to load in.
Northern Hawkes Bay Historical Data
Daily Summary for March 1, 2017 Units:  English    Metric   Both
« Previous Day
Next Day »
Daily Weekly Monthly Yearly Custom
  High: Low: Average:
Temperature: 80.1 °F 56.7 °F 65.7 °F
Dew Point: 64.6 °F 56.5 °F 59.5 °F
Humidity: 99% 50% 82%
Wind Speed: 9.8mph 0mph 2.3mph
Wind Gust: 14.5mph - -
Wind- - WSW
Pressure: 30.3 in 30.2 in -
Precipitation: 0 in    
Historical Graphs
 
 
Tabular Data for March 1, 2017
Time Temperature Dew Point Pressure Wind Wind Speed Wind Gust Humidity Rainfall Rate (Hourly) solar
00:01 79.7 °F 59.5 °F 30.3 in Calm     50% 0 in 225 W/m2
00:06 80.1 °F 61 °F 30.3 in Calm   0.7 mph 52% 0 in 210 W/m2
00:11 79.7 °F 60.6 °F 30.3 in Calm   0.7 mph 52% 0 in 196 W/m2
00:16 79.5 °F 61 °F 30.3 in Calm     53% 0 in 162 W/m2
00:21 78.4 °F 61 °F 30.3 in Calm     55% 0 in 52 W/m2
00:26 77 °F 61.2 °F 30.3 in Calm     58% 0 in 63 W/m2
00:31 75.9 °F 61.5 °F 30.3 in Calm     61% 0 in 75 W/m2
00:36 75 °F 62.1 °F 30.3 in Calm     64% 0 in 68 W/m2
00:41 75.7 °F 62.8 °F 30.3 in Calm     64% 0 in 104 W/m2
00:46 75.9 °F 62.1 °F 30.3 in Calm     62% 0 in 41 W/m2
00:51 74.7 °F 62.1 °F 30.3 in Calm     65% 0 in 42 W/m2
00:56 74.3 °F 62.2 °F 30.3 in Calm     66% 0 in 62 W/m2
01:01 74.7 °F 62.1 °F 30.3 in Calm     65% 0 in 43 W/m2
01:06 75.2 °F 62.8 °F 30.3 in Calm     65% 0 in 44 W/m2
01:11 75.7 °F 62.8 °F 30.3 in Calm     64% 0 in 32 W/m2
01:30 71.4 °F 62.1 °F 30.3 in Calm     72% 0 in 17 W/m2
01:35 70.5 °F 61.2 °F 30.3 in Calm     72% 0 in 12 W/m2
01:40 70 °F 60.6 °F 30.3 in Calm     72% 0 in 10 W/m2
01:45 69.3 °F 60.3 °F 30.3 in Calm     73% 0 in 6 W/m2
01:50 68.7 °F 60.1 °F 30.3 in Calm     74% 0 in 4 W/m2
01:55 68.4 °F 60.4 °F 30.3 in Calm     76% 0 in 2 W/m2
02:00 67.8 °F 60.6 °F 30.3 in Calm     78% 0 in 0 W/m2
02:05 66.9 °F 59.5 °F 30.3 in Calm     77% 0 in 0 W/m2
02:10 66.9 °F 60.3 °F 30.3 in Calm     79% 0 in 0 W/m2
02:15 66.6 °F 60.3 °F 30.3 in Calm     80% 0 in 0 W/m2
02:20 66.4 °F 61.2 °F 30.3 in Calm     83% 0 in 0 W/m2
02:25 66 °F 61.3 °F 30.3 in Calm     85% 0 in 0 W/m2
02:30 65.7 °F 61.2 °F 30.3 in Calm     85% 0 in 0 W/m2
02:35 65.3 °F 61 °F 30.3 in Calm     86% 0 in 0 W/m2
02:40 65.1 °F 61.2 °F 30.3 in Calm     87% 0 in 0 W/m2
02:45 64.9 °F 61.3 °F 30.3 in Calm     88% 0 in 0 W/m2
02:50 64.8 °F 61.2 °F 30.3 in Calm     88% 0 in 0 W/m2
02:55 64.4 °F 61.2 °F 30.3 in Calm     89% 0 in 0 W/m2
03:00 64.2 °F 61 °F 30.3 in Calm     89% 0 in 0 W/m2
03:05 64 °F 60.8 °F 30.3 in Calm     89% 0 in 0 W/m2
03:10 64 °F 60.8 °F 30.3 in Calm     89% 0 in 0 W/m2
03:15 63.9 °F 60.6 °F 30.3 in Calm     89% 0 in 0 W/m2
03:20 63.7 °F 60.1 °F 30.3 in NW 2.2 mph 4.5 mph 88% 0 in 0 W/m2
03:25 63.7 °F 60.4 °F 30.3 in NW 1.6 mph 4.5 mph 89% 0 in 0 W/m2
03:30 63.7 °F 60.1 °F 30.3 in Calm   3.8 mph 88% 0 in 0 W/m2
03:35 63.3 °F 59.4 °F 30.3 in Calm   2.2 mph 87% 0 in 0 W/m2
03:40 63 °F 59 °F 30.3 in Calm   2.2 mph 87% 0 in 0 W/m2
03:45 62.6 °F 58.6 °F 30.3 in NW 0.7 mph 2.2 mph 87% 0 in 0 W/m2
03:50 62.4 °F 58.8 °F 30.3 in NNW 2.2 mph 3.1 mph 88% 0 in 0 W/m2
03:55 62.2 °F 59 °F 30.3 in NNW 1.6 mph 3.8 mph 89% 0 in 0 W/m2
04:00 62.2 °F 59 °F 30.3 in NNW 1.6 mph 3.8 mph 89% 0 in 0 W/m2
04:05 62.1 °F 58.8 °F 30.3 in Calm   3.1 mph 89% 0 in 0 W/m2
04:10 61.9 °F 58.6 °F 30.3 in Calm   2.2 mph 89% 0 in 0 W/m2
04:15 61.7 °F 58.5 °F 30.3 in Calm     89% 0 in 0 W/m2
04:20 61.7 °F 58.8 °F 30.3 in Calm     90% 0 in 0 W/m2
04:25 61.7 °F 58.8 °F 30.3 in North 2.2 mph 3.1 mph 90% 0 in 0 W/m2
04:30 61.7 °F 58.8 °F 30.3 in North 0.7 mph 3.1 mph 90% 0 in 0 W/m2
04:35 61.5 °F 58.6 °F 30.3 in North 3.1 mph 3.8 mph 90% 0 in 0 W/m2
04:40 61.5 °F 58.6 °F 30.3 in North 2.2 mph 4.5 mph 90% 0 in 0 W/m2
04:45 61.5 °F 58.6 °F 30.3 in Calm   4.5 mph 90% 0 in 0 W/m2
04:50 61.5 °F 58.6 °F 30.3 in Calm   3.8 mph 90% 0 in 0 W/m2
04:55 61.3 °F 58.5 °F 30.3 in Calm   3.1 mph 90% 0 in 0 W/m2
05:13 61 °F 58.6 °F 30.3 in Calm   0.7 mph 92% 0 in 0 W/m2
05:18 60.8 °F 58.5 °F 30.3 in Calm   0.7 mph 92% 0 in 0 W/m2
05:23 60.8 °F 58.5 °F 30.3 in Calm     92% 0 in 0 W/m2
05:28 60.8 °F 58.5 °F 30.3 in Calm     92% 0 in 0 W/m2
05:33 60.6 °F 58.6 °F 30.3 in Calm     93% 0 in 0 W/m2
05:38 60.6 °F 58.6 °F 30.3 in Calm     93% 0 in 0 W/m2
05:43 60.4 °F 58.5 °F 30.3 in Calm     93% 0 in 0 W/m2
05:48 60.4 °F 58.5 °F 30.3 in Calm     93% 0 in 0 W/m2
05:53 60.3 °F 58.3 °F 30.3 in Calm     93% 0 in 0 W/m2
05:58 60.1 °F 58.1 °F 30.3 in Calm     93% 0 in 0 W/m2
06:03 59.9 °F 57.9 °F 30.3 in Calm     93% 0 in 0 W/m2
06:08 59.9 °F 57.9 °F 30.3 in Calm     93% 0 in 0 W/m2
06:13 59.9 °F 57.9 °F 30.3 in Calm     93% 0 in 0 W/m2
06:18 59.9 °F 58.3 °F 30.3 in Calm     94% 0 in 0 W/m2
06:23 59.9 °F 58.3 °F 30.3 in Calm     94% 0 in 0 W/m2
06:28 59.9 °F 58.3 °F 30.3 in Calm     94% 0 in 0 W/m2
06:33 59.9 °F 58.3 °F 30.3 in Calm     94% 0 in 0 W/m2
06:38 59.9 °F 58.3 °F 30.3 in Calm     94% 0 in 0 W/m2
06:43 59.9 °F 58.3 °F 30.3 in NW 1.6 mph 4.5 mph 94% 0 in 0 W/m2
06:48 59.9 °F 58.3 °F 30.3 in NW 1.6 mph 4.5 mph 94% 0 in 0 W/m2
06:53 59.7 °F 57.9 °F 30.3 in NNW 1.6 mph 3.8 mph 94% 0 in 0 W/m2
06:58 59.5 °F 57.7 °F 30.3 in Calm   3.1 mph 94% 0 in 0 W/m2
07:03 59.5 °F 57.7 °F 30.3 in Calm   3.1 mph 94% 0 in 0 W/m2
07:08 59.5 °F 57.7 °F 30.3 in NNW 1.6 mph 4.5 mph 94% 0 in 0 W/m2
07:13 59.5 °F 57.7 °F 30.3 in NNW 1.6 mph 4.5 mph 94% 0 in 0 W/m2
07:18 59.4 °F 57.6 °F 30.3 in NW 1.6 mph 3.8 mph 94% 0 in 0 W/m2
07:23 59.5 °F 57.7 °F 30.3 in NNW 2.2 mph 4.5 mph 94% 0 in 0 W/m2
07:28 59.5 °F 57.7 °F 30.3 in NNW 2.2 mph 4.5 mph 94% 0 in 0 W/m2
07:33 59.5 °F 57.7 °F 30.3 in NW 2.2 mph 4.5 mph 94% 0 in 0 W/m2
07:38 59.5 °F 57.7 °F 30.3 in NNW 3.1 mph 5.4 mph 94% 0 in 0 W/m2
07:43 59.5 °F 57.7 °F 30.3 in NNW 2.2 mph 5.4 mph 94% 0 in 0 W/m2
07:48 59.5 °F 57.7 °F 30.3 in NNW 1.6 mph 4.5 mph 94% 0 in 0 W/m2
07:53 59.4 °F 57.6 °F 30.3 in NNW 1.6 mph 3.8 mph 94% 0 in 0 W/m2
07:58 59.4 °F 57.6 °F 30.3 in NW 0.7 mph 3.1 mph 94% 0 in 0 W/m2
08:03 59 °F 57.4 °F 30.3 in NW 2.2 mph 3.1 mph 94% 0 in 0 W/m2
08:08 58.8 °F 57.4 °F 30.3 in NW 2.2 mph 3.8 mph 95% 0 in 0 W/m2
08:13 58.5 °F 57 °F 30.3 in NW 0.7 mph 3.8 mph 95% 0 in 0 W/m2
08:18 58.5 °F 57 °F 30.3 in NNW 1.6 mph 3.1 mph 95% 0 in 0 W/m2
08:23 58.5 °F 57.4 °F 30.3 in NW 1.6 mph 3.1 mph 96% 0 in 0 W/m2
08:28 58.3 °F 57.2 °F 30.3 in NW 1.6 mph 3.1 mph 96% 0 in 0 W/m2
08:33 58.3 °F 57.2 °F 30.3 in NNW 2.2 mph 3.1 mph 96% 0 in 0 W/m2
08:38 58.3 °F 57.2 °F 30.3 in NNW 1.6 mph 3.1 mph 96% 0 in 0 W/m2
08:41 58.3 °F 57.2 °F 30.3 in NNW 2.2 mph 3.8 mph 96% 0 in 0 W/m2
08:59 58.3 °F 57.4 °F 30.3 in NW 2.2 mph 4.5 mph 97% 0 in 0 W/m2
09:04 58.3 °F 57.4 °F 30.3 in NW 0.7 mph 4.5 mph 97% 0 in 0 W/m2
09:10 58.3 °F 57.4 °F 30.3 in Calm   3.1 mph 97% 0 in 0 W/m2
09:14 58.1 °F 57.4 °F 30.3 in WNW 1.6 mph 3.1 mph 97% 0 in 0 W/m2
09:20 58.1 °F 57.4 °F 30.3 in WNW 2.2 mph 3.8 mph 97% 0 in 0 W/m2
09:24 57.9 °F 57 °F 30.3 in NW 2.2 mph 3.8 mph 97% 0 in 0 W/m2
09:30 57.9 °F 57 °F 30.3 in NW 2.2 mph 4.5 mph 97% 0 in 0 W/m2
09:34 57.9 °F 57 °F 30.3 in Calm   4.5 mph 97% 0 in 0 W/m2
09:39 57.7 °F 56.8 °F 30.3 in Calm   3.1 mph 97% 0 in 0 W/m2
09:45 57.7 °F 56.8 °F 30.3 in NNW 1.6 mph 3.1 mph 97% 0 in 0 W/m2
09:49 57.7 °F 56.8 °F 30.3 in NNW 1.6 mph 3.8 mph 97% 0 in 0 W/m2
09:54 57.6 °F 57 °F 30.3 in NNW 1.6 mph 3.8 mph 98% 0 in 0 W/m2
09:59 57.6 °F 57 °F 30.3 in NNW 0.7 mph 3.1 mph 98% 0 in 0 W/m2
10:04 57.6 °F 57 °F 30.3 in NNW 0.7 mph 3.1 mph 98% 0 in 0 W/m2
10:09 57.6 °F 57 °F 30.3 in Calm   3.8 mph 98% 0 in 0 W/m2
10:14 57.6 °F 57 °F 30.3 in Calm   3.8 mph 98% 0 in 0 W/m2
10:19 57.4 °F 56.8 °F 30.3 in Calm   1.6 mph 98% 0 in 0 W/m2
10:24 57.4 °F 56.8 °F 30.3 in Calm     98% 0 in 0 W/m2
10:29 57.4 °F 56.8 °F 30.3 in Calm     98% 0 in 0 W/m2
10:34 57.2 °F 56.7 °F 30.3 in NNW 3.1 mph 3.8 mph 98% 0 in 0 W/m2
10:39 57.2 °F 56.7 °F 30.3 in Calm   3.8 mph 98% 0 in 0 W/m2
10:44 57.2 °F 56.7 °F 30.3 in North 1.6 mph 3.8 mph 98% 0 in 0 W/m2
10:50 57.2 °F 56.7 °F 30.3 in Calm   3.1 mph 98% 0 in 0 W/m2
10:54 57.2 °F 56.7 °F 30.3 in Calm   3.1 mph 98% 0 in 0 W/m2
10:59 57.2 °F 56.8 °F 30.3 in Calm   2.2 mph 99% 0 in 0 W/m2
11:04 57 °F 56.8 °F 30.3 in Calm   2.2 mph 99% 0 in 0 W/m2
11:09 57 °F 56.8 °F 30.3 in Calm     99% 0 in 0 W/m2
11:14 57 °F 56.8 °F 30.3 in NNW 3.1 mph 3.8 mph 99% 0 in 0 W/m2
11:19 57.2 °F 56.8 °F 30.3 in NNW 3.1 mph 4.5 mph 99% 0 in 0 W/m2
11:24 57.2 °F 56.8 °F 30.3 in NNW 1.6 mph 4.5 mph 99% 0 in 0 W/m2
11:29 57.2 °F 56.8 °F 30.3 in NNW 1.6 mph 4.5 mph 99% 0 in 0 W/m2
11:34 57.2 °F 56.8 °F 30.3 in NW 1.6 mph 3.8 mph 99% 0 in 0 W/m2
11:39 57.2 °F 56.8 °F 30.3 in NW 2.2 mph 4.5 mph 99% 0 in 0 W/m2
11:44 57.4 °F 57 °F 30.3 in NNW 3.1 mph 5.4 mph 99% 0 in 0 W/m2
11:49 57.4 °F 57 °F 30.3 in NNW 3.1 mph 5.4 mph 99% 0 in 0 W/m2
11:54 57.4 °F 57 °F 30.3 in NNW 2.2 mph 5.4 mph 99% 0 in 0 W/m2
11:59 57.4 °F 57 °F 30.3 in North 1.6 mph 5.4 mph 99% 0 in 0 W/m2
12:04 57.2 °F 56.8 °F 30.3 in North 0.7 mph 3.8 mph 99% 0 in 0 W/m2
12:09 57.2 °F 56.8 °F 30.3 in North 1.6 mph 3.1 mph 99% 0 in 0 W/m2
12:14 57.2 °F 56.8 °F 30.3 in North 2.2 mph 3.8 mph 99% 0 in 0 W/m2
12:19 57 °F 56.8 °F 30.3 in North 2.2 mph 3.8 mph 99% 0 in 0 W/m2
12:24 57 °F 56.8 °F 30.3 in North 1.6 mph 3.8 mph 99% 0 in 0 W/m2
12:29 56.8 °F 56.7 °F 30.3 in North 1.6 mph 4.5 mph 99% 0 in 0 W/m2
12:34 56.8 °F 56.7 °F 30.3 in NNW 0.7 mph 4.5 mph 99% 0 in 0 W/m2
12:39 56.8 °F 56.7 °F 30.3 in North 1.6 mph 3.8 mph 99% 0 in 0 W/m2
12:44 56.7 °F 56.5 °F 30.3 in North 2.2 mph 4.5 mph 99% 0 in 0 W/m2
12:50 56.7 °F 56.5 °F 30.3 in North 1.6 mph 4.5 mph 99% 0 in 1 W/m2
12:55 56.7 °F 56.5 °F 30.3 in NNW 1.6 mph 3.8 mph 99% 0 in 4 W/m2
13:00 56.7 °F 56.5 °F 30.3 in NNW 2.2 mph 3.8 mph 99% 0 in 7 W/m2
13:05 56.7 °F 56.5 °F 30.3 in Calm   3.8 mph 99% 0 in 11 W/m2
13:10 56.7 °F 56.5 °F 30.3 in North 1.6 mph 3.8 mph 99% 0 in 14 W/m2
13:15 56.8 °F 56.7 °F 30.3 in North 0.7 mph 3.8 mph 99% 0 in 18 W/m2
13:20 57 °F 56.8 °F 30.3 in NNW 1.6 mph 3.8 mph 99% 0 in 47 W/m2
13:23 57.4 °F 57 °F 30.3 in NNW 2.2 mph 5.4 mph 99% 0 in 56 W/m2
13:28 58.1 °F 57.7 °F 30.3 in NNW 0.7 mph 5.4 mph 99% 0 in 72 W/m2
13:33 59 °F 58.6 °F 30.3 in North 2.2 mph 3.8 mph 99% 0 in 90 W/m2
13:38 59.5 °F 59.4 °F 30.3 in NNW 1.6 mph 3.8 mph 99% 0 in 106 W/m2
13:43 59.9 °F 59.5 °F 30.3 in NNW 1.6 mph 4.5 mph 99% 0 in 120 W/m2
13:48 60.6 °F 59.7 °F 30.3 in NNW 1.6 mph 4.5 mph 97% 0 in 135 W/m2
13:53 61.3 °F 59.9 °F 30.3 in NNW 1.6 mph 4.5 mph 95% 0 in 148 W/m2
13:58 61.3 °F 59 °F 30.3 in NNW 1.6 mph 5.4 mph 92% 0 in 157 W/m2
14:03 61.9 °F 58.6 °F 30.3 in NNW 1.6 mph 5.4 mph 89% 0 in 167 W/m2
14:08 62.6 °F 58.6 °F 30.3 in North 1.6 mph 3.8 mph 87% 0 in 179 W/m2
14:13 63 °F 58.5 °F 30.3 in North 1.6 mph 3.8 mph 85% 0 in 191 W/m2
14:18 63.9 °F 59.4 °F 30.3 in North 1.6 mph 3.8 mph 85% 0 in 201 W/m2
14:23 64.4 °F 59.5 °F 30.3 in NNW 1.6 mph 4.5 mph 84% 0 in 207 W/m2
14:28 64.4 °F 58.8 °F 30.3 in NNW 1.6 mph 6 mph 82% 0 in 211 W/m2
14:33 64.8 °F 59.2 °F 30.3 in NNW 3.8 mph 6.9 mph 82% 0 in 215 W/m2
14:38 64.4 °F 58.8 °F 30.3 in NNW 3.8 mph 6.9 mph 82% 0 in 222 W/m2
14:43 64.9 °F 60.1 °F 30.3 in NNW 1.6 mph 6 mph 84% 0 in 230 W/m2
14:48 65.5 °F 59.9 °F 30.3 in NNW 1.6 mph 6 mph 82% 0 in 239 W/m2
14:53 65.8 °F 59.9 °F 30.3 in NNW 2.2 mph 6 mph 81% 0 in 249 W/m2
14:58 66.4 °F 60.4 °F 30.3 in NW 2.2 mph 4.5 mph 81% 0 in 261 W/m2
15:03 67.6 °F 61.3 °F 30.3 in NNW 3.8 mph 4.5 mph 80% 0 in 271 W/m2
15:08 67.8 °F 60.6 °F 30.3 in North 2.2 mph 4.5 mph 78% 0 in 280 W/m2
15:13 68.2 °F 60.6 °F 30.3 in NNW 1.6 mph 4.5 mph 77% 0 in 289 W/m2
15:18 68.9 °F 61.9 °F 30.3 in NW 0.7 mph 3.8 mph 78% 0 in 301 W/m2
15:23 70.2 °F 61.9 °F 30.3 in NW 1.6 mph 3.8 mph 75% 0 in 321 W/m2
15:28 70.7 °F 61.5 °F 30.3 in Calm   3.8 mph 73% 0 in 299 W/m2
15:33 70.5 °F 61.5 °F 30.3 in Calm   3.8 mph 73% 0 in 202 W/m2
15:38 70.9 °F 61.9 °F 30.3 in Calm   2.2 mph 73% 0 in 402 W/m2
15:43 73.4 °F 63.9 °F 30.3 in Calm   0.7 mph 72% 0 in 231 W/m2
15:48 74.8 °F 63.7 °F 30.3 in SW 0.7 mph 3.8 mph 68% 0 in 402 W/m2
15:53 75.9 °F 64.2 °F 30.3 in SSE 2.2 mph 3.8 mph 67% 0 in 430 W/m2
15:58 75.4 °F 63.3 °F 30.3 in SSE 3.8 mph 4.5 mph 66% 0 in 521 W/m2
16:03 74.3 °F 63.5 °F 30.3 in SSW 3.1 mph 6.9 mph 69% 0 in 239 W/m2
16:08 73.8 °F 63.9 °F 30.3 in SSW 4.5 mph 6.9 mph 71% 0 in 422 W/m2
16:13 73.4 °F 64.6 °F 30.3 in South 4.5 mph 7.6 mph 74% 0 in 396 W/m2
16:18 72.7 °F 63.7 °F 30.3 in SSW 5.4 mph 7.6 mph 73% 0 in 284 W/m2
16:23 71.2 °F 63.7 °F 30.3 in SW 4.5 mph 7.6 mph 77% 0 in 271 W/m2
16:28 70.5 °F 63 °F 30.3 in SSW 3.8 mph 7.6 mph 77% 0 in 275 W/m2
16:33 70.5 °F 63 °F 30.3 in South 4.5 mph 7.6 mph 77% 0 in 276 W/m2
16:38 70.5 °F 62.2 °F 30.3 in South 3.8 mph 7.6 mph 75% 0 in 260 W/m2
16:44 70.2 °F 61.2 °F 30.3 in South 5.4 mph 8.3 mph 73% 0 in 268 W/m2
16:49 69.8 °F 61.2 °F 30.3 in South 8.3 mph 9.8 mph 74% 0 in 291 W/m2
16:54 70 °F 61.7 °F 30.3 in South 3.8 mph 9.8 mph 75% 0 in 261 W/m2
17:13 69.8 °F 60.8 °F 30.3 in South 2.2 mph 9.8 mph 73% 0 in 274 W/m2
17:18 70 °F 60.6 °F 30.3 in South 5.4 mph 9.2 mph 72% 0 in 283 W/m2
17:23 69.8 °F 60.4 °F 30.3 in South 6 mph 11.4 mph 72% 0 in 286 W/m2
17:28 70 °F 60.6 °F 30.3 in South 4.5 mph 11.4 mph 72% 0 in 305 W/m2
17:33 70.2 °F 61.2 °F 30.3 in South 2.2 mph 9.8 mph 73% 0 in 322 W/m2
17:38 70.7 °F 61.3 °F 30.3 in South 4.5 mph 9.8 mph 72% 0 in 319 W/m2
17:43 70.2 °F 60.3 °F 30.3 in SSE 3.8 mph 10.7 mph 71% 0 in 352 W/m2
17:48 70.2 °F 60.6 °F 30.3 in South 6 mph 10.7 mph 72% 0 in 371 W/m2
17:53 70 °F 60.6 °F 30.3 in South 5.4 mph 10.7 mph 72% 0 in 363 W/m2
17:58 70.2 °F 60.6 °F 30.3 in South 5.4 mph 9.2 mph 72% 0 in 358 W/m2
18:03 70.3 °F 61 °F 30.3 in South 7.6 mph 10.7 mph 72% 0 in 411 W/m2
18:08 70.2 °F 60.6 °F 30.3 in South 6 mph 11.4 mph 72% 0 in 400 W/m2
18:13 70 °F 60.6 °F 30.3 in South 4.5 mph 11.4 mph 72% 0 in 368 W/m2
18:18 69.8 °F 60.1 °F 30.3 in South 7.6 mph 11.4 mph 71% 0 in 377 W/m2
18:23 70.2 °F 61.2 °F 30.3 in SSE 5.4 mph 11.4 mph 73% 0 in 567 W/m2
18:28 70.7 °F 61.3 °F 30.3 in SSE 7.6 mph 10.7 mph 72% 0 in 830 W/m2
18:33 70.7 °F 61 °F 30.3 in South 6.9 mph 10.7 mph 71% 0 in 890 W/m2
18:38 71.4 °F 62.1 °F 30.3 in South 6 mph 10.7 mph 72% 0 in 884 W/m2
18:43 72.7 °F 61.5 °F 30.3 in SSE 5.4 mph 10.7 mph 68% 0 in 419 W/m2
18:48 72.1 °F 60.6 °F 30.3 in SSE 6 mph 10.7 mph 67% 0 in 1056 W/m2
18:53 72.5 °F 61 °F 30.3 in SSE 3.8 mph 9.8 mph 67% 0 in 668 W/m2
18:58 72.7 °F 62.1 °F 30.3 in SSE 6 mph 9.2 mph 69% 0 in 913 W/m2
19:03 72.7 °F 62.8 °F 30.3 in SE 3.8 mph 9.2 mph 71% 0 in 1029 W/m2
19:08 72.3 °F 62.8 °F 30.3 in SE 3.8 mph 9.8 mph 72% 0 in 975 W/m2
19:13 72.5 °F 63 °F 30.3 in SSE 4.5 mph 9.8 mph 72% 0 in 979 W/m2
19:18 72.3 °F 62.4 °F 30.3 in SSE 6 mph 10.7 mph 71% 0 in 963 W/m2
19:23 72.5 °F 62.6 °F 30.3 in SSE 6 mph 13.6 mph 71% 0 in 924 W/m2
19:28 72.9 °F 63 °F 30.3 in South 3.1 mph 13.6 mph 71% 0 in 978 W/m2
19:33 73 °F 62.2 °F 30.3 in South 5.4 mph 10.7 mph 69% 0 in 934 W/m2
19:38 72.5 °F 62.2 °F 30.3 in South 4.5 mph 10.7 mph 70% 0 in 497 W/m2
19:43 71.6 °F 61.7 °F 30.3 in SSE 6 mph 12.1 mph 71% 0 in 944 W/m2
19:48 71.6 °F 61.7 °F 30.3 in SSE 5.4 mph 12.1 mph 71% 0 in 827 W/m2
19:53 71.8 °F 61.9 °F 30.3 in SSE 5.4 mph 11.4 mph 71% 0 in 813 W/m2
19:58 72 °F 62.1 °F 30.2 in South 7.6 mph 11.4 mph 71% 0 in 916 W/m2
20:03 71.1 °F 61.5 °F 30.3 in South 6 mph 12.1 mph 72% 0 in 800 W/m2
20:08 70.9 °F 61.3 °F 30.2 in South 6 mph 12.1 mph 72% 0 in 896 W/m2
20:13 71.2 °F 62.2 °F 30.2 in SSE 7.6 mph 11.4 mph 73% 0 in 782 W/m2
20:18 71.4 °F 62.1 °F 30.3 in SSE 5.4 mph 11.4 mph 72% 0 in 864 W/m2
20:23 71.1 °F 62.1 °F 30.2 in SSE 3.1 mph 13 mph 73% 0 in 719 W/m2
20:28 70.9 °F 61.3 °F 30.3 in SSE 5.4 mph 14.5 mph 72% 0 in 865 W/m2
20:33 72 °F 62.1 °F 30.3 in SSE 3.8 mph 14.5 mph 71% 0 in 903 W/m2
20:38 73 °F 61.9 °F 30.2 in SE 5.4 mph 9.8 mph 68% 0 in 536 W/m2
20:43 72.9 °F 61.3 °F 30.2 in SSE 7.6 mph 13.6 mph 67% 0 in 612 W/m2
20:48 71.4 °F 60.6 °F 30.2 in SSE 3.1 mph 13.6 mph 69% 0 in 927 W/m2
20:53 71.2 °F 61.3 °F 30.2 in SSE 9.8 mph 13.6 mph 71% 0 in 736 W/m2
20:58 71.4 °F 60.6 °F 30.2 in South 2.2 mph 11.4 mph 69% 0 in 421 W/m2
21:03 71.4 °F 61.2 °F 30.2 in South 5.4 mph 11.4 mph 70% 0 in 778 W/m2
21:08 73.2 °F 61.2 °F 30.2 in SSE 5.4 mph 9.2 mph 66% 0 in 759 W/m2
21:13 72.7 °F 60.3 °F 30.2 in SSE 5.4 mph 11.4 mph 65% 0 in 501 W/m2
21:18 73.9 °F 61.5 °F 30.2 in SSE 5.4 mph 11.4 mph 65% 0 in 790 W/m2
21:23 73.4 °F 61 °F 30.2 in SSE 3.1 mph 11.4 mph 65% 0 in 588 W/m2
21:28 73 °F 59.7 °F 30.2 in SSE 4.5 mph 11.4 mph 63% 0 in 449 W/m2
21:33 72 °F 59.5 °F 30.2 in SSE 4.5 mph 9.8 mph 65% 0 in 346 W/m2
21:38 72.1 °F 60.3 °F 30.2 in SSE 3.8 mph 11.4 mph 66% 0 in 327 W/m2
21:43 73 °F 60.3 °F 30.2 in SSE 5.4 mph 11.4 mph 64% 0 in 432 W/m2
21:48 73 °F 60.6 °F 30.2 in SE 4.5 mph 9.2 mph 65% 0 in 344 W/m2
21:53 72.9 °F 60.1 °F 30.2 in SSE 3.8 mph 9.2 mph 64% 0 in 285 W/m2
21:58 72.3 °F 59.9 °F 30.2 in SSE 7.6 mph 9.8 mph 65% 0 in 356 W/m2
22:03 71.6 °F 59.7 °F 30.2 in SSE 3.8 mph 12.1 mph 66% 0 in 512 W/m2
22:08 72 °F 59.5 °F 30.2 in SSE 3.8 mph 12.1 mph 65% 0 in 447 W/m2
22:13 71.6 °F 59.7 °F 30.2 in SSE 1.6 mph 10.7 mph 66% 0 in 272 W/m2
22:18 71.1 °F 60.1 °F 30.2 in SSE 4.5 mph 9.8 mph 68% 0 in 290 W/m2
22:23 71.1 °F 61.2 °F 30.2 in SSE 2.2 mph 9.8 mph 71% 0 in 283 W/m2
22:28 72.1 °F 61 °F 30.2 in SSE 3.8 mph 9.2 mph 68% 0 in 589 W/m2
22:33 72 °F 60.1 °F 30.2 in SSE 6 mph 11.4 mph 66% 0 in 444 W/m2
22:38 72.7 °F 61.5 °F 30.2 in SSE 7.6 mph 11.4 mph 68% 0 in 208 W/m2
22:43 72 °F 59.5 °F 30.2 in South 5.4 mph 10.7 mph 65% 0 in 442 W/m2
22:48 72.5 °F 60.4 °F 30.2 in SSE 6.9 mph 10.7 mph 66% 0 in 317 W/m2
22:53 71.2 °F 59.7 °F 30.2 in SSE 3.8 mph 10.7 mph 67% 0 in 212 W/m2
22:58 71.2 °F 60.3 °F 30.2 in SSE 3.1 mph 10.7 mph 68% 0 in 281 W/m2
23:03 72.1 °F 61 °F 30.2 in SE 8.3 mph 12.1 mph 68% 0 in 449 W/m2
23:08 72.9 °F 61 °F 30.2 in SE 3.1 mph 12.1 mph 66% 0 in 400 W/m2
23:13 73 °F 60.6 °F 30.2 in SSE 5.4 mph 12.1 mph 65% 0 in 397 W/m2
23:18 73.8 °F 61.3 °F 30.2 in SSE 3.8 mph 9.8 mph 65% 0 in 403 W/m2
23:23 72.5 °F 59.7 °F 30.2 in SSE 6 mph 12.1 mph 64% 0 in 173 W/m2
23:28 71.1 °F 60.1 °F 30.2 in South 4.5 mph 12.1 mph 68% 0 in 362 W/m2
23:33 71.4 °F 60.3 °F 30.2 in South 3.1 mph 9.8 mph 68% 0 in 323 W/m2
23:38 72.5 °F 59.7 °F 30.2 in SSE 5.4 mph 9.8 mph 64% 0 in 291 W/m2
23:43 73.2 °F 60.3 °F 30.2 in SSE 6.9 mph 9.8 mph 64% 0 in 297 W/m2
23:48 71.6 °F 59.2 °F 30.2 in SSE 3.1 mph 12.1 mph 65% 0 in 232 W/m2
23:53 72.3 °F 59.5 °F 30.2 in SSE 1.6 mph 12.1 mph 64% 0 in 236 W/m2
23:58 72.7 °F 59.4 °F 30.2 in SSE 1.6 mph 8.3 mph 63% 0 in 108 W/m2
Northern Hawkes Bay. New Zealand Historic Data
Compliments of Weather Underground - 2 mb